sensor_id;sensor_type;location;lat;lon;timestamp;pressure;altitude;pressure_sealevel;temperature;humidity
39051;BME280;24805;55.852;37.644;2022-07-21T00:02:59;98151.06;;;17.78;63.60
39051;BME280;24805;55.852;37.644;2022-07-21T00:08:01;98155.31;;;17.74;63.53
39051;BME280;24805;55.852;37.644;2022-07-21T00:13:04;98161.47;;;17.70;64.28
39051;BME280;24805;55.852;37.644;2022-07-21T00:18:06;98167.88;;;17.69;64.45
39051;BME280;24805;55.852;37.644;2022-07-21T00:23:09;98171.38;;;17.69;64.08
39051;BME280;24805;55.852;37.644;2022-07-21T00:28:11;98169.00;;;17.73;63.90
39051;BME280;24805;55.852;37.644;2022-07-21T00:33:13;98164.44;;;17.73;64.66
39051;BME280;24805;55.852;37.644;2022-07-21T00:38:15;98157.19;;;17.74;64.21
39051;BME280;24805;55.852;37.644;2022-07-21T00:43:17;98154.00;;;17.77;64.42
39051;BME280;24805;55.852;37.644;2022-07-21T00:48:20;98164.50;;;17.78;64.08
39051;BME280;24805;55.852;37.644;2022-07-21T00:53:22;98162.88;;;17.77;64.25
39051;BME280;24805;55.852;37.644;2022-07-21T00:58:25;98162.06;;;17.77;64.25
39051;BME280;24805;55.852;37.644;2022-07-21T01:03:27;98159.63;;;17.75;64.33
39051;BME280;24805;55.852;37.644;2022-07-21T01:08:31;98165.00;;;17.75;64.74
39051;BME280;24805;55.852;37.644;2022-07-21T01:13:33;98160.91;;;17.68;65.26
39051;BME280;24805;55.852;37.644;2022-07-21T01:18:36;98154.34;;;17.58;65.68
39051;BME280;24805;55.852;37.644;2022-07-21T01:23:38;98156.44;;;17.51;65.96
39051;BME280;24805;55.852;37.644;2022-07-21T01:28:40;98147.28;;;17.47;65.98
39051;BME280;24805;55.852;37.644;2022-07-21T01:33:42;98149.22;;;17.52;65.69
39051;BME280;24805;55.852;37.644;2022-07-21T01:38:44;98150.06;;;17.58;65.96
39051;BME280;24805;55.852;37.644;2022-07-21T01:44:11;98144.16;;;17.61;65.50
39051;BME280;24805;55.852;37.644;2022-07-21T01:49:16;98148.91;;;17.75;65.11
39051;BME280;24805;55.852;37.644;2022-07-21T01:54:18;98152.94;;;17.78;64.65
39051;BME280;24805;55.852;37.644;2022-07-21T01:59:25;98163.13;;;17.81;64.90
39051;BME280;24805;55.852;37.644;2022-07-21T02:04:27;98150.28;;;17.83;64.93
39051;BME280;24805;55.852;37.644;2022-07-21T02:09:30;98162.38;;;17.85;64.89
39051;BME280;24805;55.852;37.644;2022-07-21T02:14:32;98153.81;;;17.88;65.11
39051;BME280;24805;55.852;37.644;2022-07-21T02:19:35;98155.44;;;17.89;64.93
39051;BME280;24805;55.852;37.644;2022-07-21T02:24:37;98152.50;;;17.91;65.07
39051;BME280;24805;55.852;37.644;2022-07-21T02:29:41;98145.00;;;17.93;64.81
39051;BME280;24805;55.852;37.644;2022-07-21T02:34:44;98141.50;;;17.93;65.32
39051;BME280;24805;55.852;37.644;2022-07-21T02:39:46;98144.19;;;17.93;64.95
39051;BME280;24805;55.852;37.644;2022-07-21T02:44:48;98136.94;;;17.93;64.71
39051;BME280;24805;55.852;37.644;2022-07-21T02:49:50;98141.56;;;17.98;65.13
39051;BME280;24805;55.852;37.644;2022-07-21T02:54:52;98135.63;;;18.01;65.36
39051;BME280;24805;55.852;37.644;2022-07-21T02:59:55;98143.72;;;18.06;65.29
39051;BME280;24805;55.852;37.644;2022-07-21T03:04:57;98140.50;;;18.04;65.21
39051;BME280;24805;55.852;37.644;2022-07-21T03:09:59;98137.59;;;18.10;64.87
39051;BME280;24805;55.852;37.644;2022-07-21T03:15:02;98137.88;;;18.14;65.53
39051;BME280;24805;55.852;37.644;2022-07-21T03:20:04;98145.13;;;18.13;65.24
39051;BME280;24805;55.852;37.644;2022-07-21T03:25:07;98133.28;;;18.09;66.25
39051;BME280;24805;55.852;37.644;2022-07-21T03:30:09;98141.56;;;18.03;66.34
39051;BME280;24805;55.852;37.644;2022-07-21T03:35:12;98145.00;;;17.93;66.58
39051;BME280;24805;55.852;37.644;2022-07-21T03:40:16;98132.31;;;17.83;66.20
39051;BME280;24805;55.852;37.644;2022-07-21T03:45:19;98143.78;;;17.74;67.25
39051;BME280;24805;55.852;37.644;2022-07-21T03:50:22;98139.50;;;17.73;66.66
39051;BME280;24805;55.852;37.644;2022-07-21T03:55:25;98134.69;;;17.80;66.69
39051;BME280;24805;55.852;37.644;2022-07-21T04:00:32;98132.41;;;17.99;67.00
39051;BME280;24805;55.852;37.644;2022-07-21T04:05:35;98122.47;;;17.94;66.45
39051;BME280;24805;55.852;37.644;2022-07-21T04:10:38;98146.47;;;18.11;66.18
39051;BME280;24805;55.852;37.644;2022-07-21T04:15:40;98145.44;;;18.17;66.14
39051;BME280;24805;55.852;37.644;2022-07-21T04:20:43;98143.81;;;18.21;66.07
39051;BME280;24805;55.852;37.644;2022-07-21T04:25:45;98153.03;;;18.35;65.42
39051;BME280;24805;55.852;37.644;2022-07-21T04:30:48;98151.16;;;18.41;65.84
39051;BME280;24805;55.852;37.644;2022-07-21T04:35:50;98155.53;;;18.52;65.10
39051;BME280;24805;55.852;37.644;2022-07-21T04:40:52;98153.44;;;18.59;64.65
39051;BME280;24805;55.852;37.644;2022-07-21T04:45:54;98144.59;;;18.64;64.70
39051;BME280;24805;55.852;37.644;2022-07-21T04:50:56;98147.56;;;18.67;64.47
39051;BME280;24805;55.852;37.644;2022-07-21T04:55:58;98152.69;;;18.79;64.49
39051;BME280;24805;55.852;37.644;2022-07-21T05:01:00;98147.13;;;18.96;64.28
39051;BME280;24805;55.852;37.644;2022-07-21T05:06:03;98153.09;;;19.13;63.63
39051;BME280;24805;55.852;37.644;2022-07-21T05:11:05;98142.09;;;19.35;63.22
39051;BME280;24805;55.852;37.644;2022-07-21T05:16:07;98148.06;;;19.72;62.36
39051;BME280;24805;55.852;37.644;2022-07-21T05:21:09;98152.00;;;20.30;60.44
39051;BME280;24805;55.852;37.644;2022-07-21T05:26:11;98151.66;;;20.62;59.62
39051;BME280;24805;55.852;37.644;2022-07-21T05:31:14;98155.03;;;20.93;58.25
39051;BME280;24805;55.852;37.644;2022-07-21T05:36:16;98151.94;;;21.15;57.23
39051;BME280;24805;55.852;37.644;2022-07-21T05:41:20;98155.94;;;21.62;57.00
39051;BME280;24805;55.852;37.644;2022-07-21T05:46:23;98162.88;;;22.07;54.28
39051;BME280;24805;55.852;37.644;2022-07-21T05:51:25;98166.09;;;22.38;53.61
39051;BME280;24805;55.852;37.644;2022-07-21T05:56:27;98166.53;;;22.45;53.30
39051;BME280;24805;55.852;37.644;2022-07-21T06:01:29;98178.16;;;22.46;53.05
39051;BME280;24805;55.852;37.644;2022-07-21T06:06:32;98171.47;;;22.62;52.47
39051;BME280;24805;55.852;37.644;2022-07-21T06:11:34;98178.97;;;22.94;51.32
39051;BME280;24805;55.852;37.644;2022-07-21T06:16:38;98182.47;;;22.94;51.44
39051;BME280;24805;55.852;37.644;2022-07-21T06:21:40;98191.91;;;22.97;50.83
39051;BME280;24805;55.852;37.644;2022-07-21T06:26:47;98193.13;;;22.86;50.01
39051;BME280;24805;55.852;37.644;2022-07-21T06:31:50;98197.59;;;22.72;50.20
39051;BME280;24805;55.852;37.644;2022-07-21T06:36:52;98209.97;;;22.54;51.01
39051;BME280;24805;55.852;37.644;2022-07-21T06:41:54;98206.44;;;22.29;51.62
39051;BME280;24805;55.852;37.644;2022-07-21T06:47:01;98207.91;;;22.17;52.20
39051;BME280;24805;55.852;37.644;2022-07-21T06:52:06;98219.78;;;22.45;52.40
39051;BME280;24805;55.852;37.644;2022-07-21T06:57:08;98221.88;;;22.77;50.99
39051;BME280;24805;55.852;37.644;2022-07-21T07:02:10;98231.84;;;22.81;50.47
39051;BME280;24805;55.852;37.644;2022-07-21T07:07:13;98233.91;;;22.89;49.92
39051;BME280;24805;55.852;37.644;2022-07-21T07:12:15;98234.34;;;22.78;49.71
39051;BME280;24805;55.852;37.644;2022-07-21T07:17:39;98242.41;;;22.54;50.98
39051;BME280;24805;55.852;37.644;2022-07-21T07:22:41;98253.50;;;22.52;52.28
39051;BME280;24805;55.852;37.644;2022-07-21T07:27:45;98265.72;;;23.21;51.41
39051;BME280;24805;55.852;37.644;2022-07-21T07:32:48;98250.63;;;23.95;49.23
39051;BME280;24805;55.852;37.644;2022-07-21T07:37:50;98275.50;;;24.49;47.50
39051;BME280;24805;55.852;37.644;2022-07-21T07:42:52;98270.06;;;24.16;47.84
39051;BME280;24805;55.852;37.644;2022-07-21T07:47:54;98292.22;;;23.43;49.24
39051;BME280;24805;55.852;37.644;2022-07-21T07:52:57;98302.78;;;22.39;54.43
39051;BME280;24805;55.852;37.644;2022-07-21T07:57:59;98315.38;;;21.11;59.12
39051;BME280;24805;55.852;37.644;2022-07-21T08:03:01;98329.78;;;20.41;60.77
39051;BME280;24805;55.852;37.644;2022-07-21T08:08:04;98332.19;;;20.73;63.75
39051;BME280;24805;55.852;37.644;2022-07-21T08:13:06;98332.50;;;21.51;61.77
39051;BME280;24805;55.852;37.644;2022-07-21T08:18:11;98338.00;;;23.40;57.07
39051;BME280;24805;55.852;37.644;2022-07-21T08:23:14;98337.97;;;25.03;51.95
39051;BME280;24805;55.852;37.644;2022-07-21T08:28:17;98338.63;;;27.34;46.50
39051;BME280;24805;55.852;37.644;2022-07-21T08:33:20;98349.84;;;28.50;44.03
39051;BME280;24805;55.852;37.644;2022-07-21T08:38:22;98356.59;;;29.83;41.61
39051;BME280;24805;55.852;37.644;2022-07-21T08:43:25;98363.16;;;32.61;36.63
39051;BME280;24805;55.852;37.644;2022-07-21T08:48:27;98372.16;;;34.34;31.50
39051;BME280;24805;55.852;37.644;2022-07-21T08:53:31;98372.84;;;35.57;29.11
39051;BME280;24805;55.852;37.644;2022-07-21T08:58:33;98380.69;;;38.01;25.67
39051;BME280;24805;55.852;37.644;2022-07-21T09:03:38;98375.19;;;39.69;22.80
39051;BME280;24805;55.852;37.644;2022-07-21T09:08:43;98394.19;;;41.59;20.65
39051;BME280;24805;55.852;37.644;2022-07-21T09:14:07;98396.59;;;41.57;22.49
39051;BME280;24805;55.852;37.644;2022-07-21T09:19:26;98396.50;;;38.87;21.88
39051;BME280;24805;55.852;37.644;2022-07-21T09:24:30;98391.69;;;38.63;22.00
39051;BME280;24805;55.852;37.644;2022-07-21T09:30:11;98419.25;;;38.31;22.00
39051;BME280;24805;55.852;37.644;2022-07-21T09:35:08;98417.19;;;39.14;21.10
39051;BME280;24805;55.852;37.644;2022-07-21T09:40:16;98409.38;;;38.33;20.58
39051;BME280;24805;55.852;37.644;2022-07-21T09:45:19;98412.06;;;38.22;20.44
39051;BME280;24805;55.852;37.644;2022-07-21T09:50:21;98411.66;;;39.25;19.39
39051;BME280;24805;55.852;37.644;2022-07-21T09:55:28;98416.69;;;40.51;17.84
39051;BME280;24805;55.852;37.644;2022-07-21T10:00:33;98429.47;;;41.14;17.60
39051;BME280;24805;55.852;37.644;2022-07-21T10:05:35;98437.22;;;41.44;16.41
39051;BME280;24805;55.852;37.644;2022-07-21T10:10:38;98438.94;;;41.31;15.85
39051;BME280;24805;55.852;37.644;2022-07-21T10:16:00;98426.16;;;40.64;16.57
39051;BME280;24805;55.852;37.644;2022-07-21T10:26:59;98452.97;;;41.06;17.55
39051;BME280;24805;55.852;37.644;2022-07-21T10:32:10;98453.53;;;41.46;17.51
39051;BME280;24805;55.852;37.644;2022-07-21T10:42:41;98466.75;;;36.40;20.15
39051;BME280;24805;55.852;37.644;2022-07-21T10:47:43;98461.88;;;36.90;20.16
39051;BME280;24805;55.852;37.644;2022-07-21T11:08:34;98483.81;;;31.93;25.62
39051;BME280;24805;55.852;37.644;2022-07-21T11:14:13;98498.88;;;31.29;26.78
39051;BME280;24805;55.852;37.644;2022-07-21T11:19:32;98507.78;;;30.43;28.59
39051;BME280;24805;55.852;37.644;2022-07-21T11:24:36;98520.28;;;29.47;30.59
39051;BME280;24805;55.852;37.644;2022-07-21T11:29:40;98527.03;;;29.41;30.87
39051;BME280;24805;55.852;37.644;2022-07-21T11:34:48;98514.31;;;30.00;30.30
39051;BME280;24805;55.852;37.644;2022-07-21T11:39:50;98514.38;;;30.71;29.23
39051;BME280;24805;55.852;37.644;2022-07-21T11:44:52;98526.78;;;31.43;28.24
39051;BME280;24805;55.852;37.644;2022-07-21T11:49:56;98519.69;;;31.88;27.31
39051;BME280;24805;55.852;37.644;2022-07-21T11:55:00;98533.19;;;31.93;27.12
39051;BME280;24805;55.852;37.644;2022-07-21T12:00:05;98532.94;;;31.73;27.62
39051;BME280;24805;55.852;37.644;2022-07-21T12:05:13;98547.69;;;32.17;27.74
39051;BME280;24805;55.852;37.644;2022-07-21T12:10:28;98534.53;;;34.85;24.75
39051;BME280;24805;55.852;37.644;2022-07-21T12:15:35;98548.38;;;35.46;22.89
39051;BME280;24805;55.852;37.644;2022-07-21T12:21:03;98558.41;;;35.54;23.04
39051;BME280;24805;55.852;37.644;2022-07-21T12:26:20;98570.44;;;35.46;23.25
39051;BME280;24805;55.852;37.644;2022-07-21T12:31:24;98564.38;;;35.37;22.67
39051;BME280;24805;55.852;37.644;2022-07-21T12:36:26;98567.47;;;34.97;23.33
39051;BME280;24805;55.852;37.644;2022-07-21T12:41:28;98584.38;;;34.13;23.31
39051;BME280;24805;55.852;37.644;2022-07-21T12:46:32;98584.22;;;35.08;22.48
39051;BME280;24805;55.852;37.644;2022-07-21T12:51:37;98573.88;;;36.05;21.78
39051;BME280;24805;55.852;37.644;2022-07-21T12:56:40;98571.50;;;36.52;21.38
39051;BME280;24805;55.852;37.644;2022-07-21T13:01:42;98584.91;;;36.77;20.55
39051;BME280;24805;55.852;37.644;2022-07-21T13:06:44;98582.06;;;37.30;20.35
39051;BME280;24805;55.852;37.644;2022-07-21T13:11:47;98589.03;;;36.14;21.16
39051;BME280;24805;55.852;37.644;2022-07-21T13:16:49;98601.91;;;34.87;22.93
39051;BME280;24805;55.852;37.644;2022-07-21T13:21:52;98604.06;;;34.78;23.35
39051;BME280;24805;55.852;37.644;2022-07-21T13:26:54;98609.31;;;33.89;24.73
39051;BME280;24805;55.852;37.644;2022-07-21T13:31:56;98599.31;;;33.69;24.36
39051;BME280;24805;55.852;37.644;2022-07-21T13:36:59;98592.25;;;33.00;24.76
39051;BME280;24805;55.852;37.644;2022-07-21T13:42:01;98591.28;;;32.43;25.81
39051;BME280;24805;55.852;37.644;2022-07-21T13:47:23;98591.66;;;31.84;27.17
39051;BME280;24805;55.852;37.644;2022-07-21T13:52:25;98596.91;;;31.03;27.49
39051;BME280;24805;55.852;37.644;2022-07-21T13:57:27;98592.41;;;30.48;28.76
39051;BME280;24805;55.852;37.644;2022-07-21T14:02:29;98594.22;;;30.14;29.02
39051;BME280;24805;55.852;37.644;2022-07-21T14:07:32;98590.09;;;29.82;29.47
39051;BME280;24805;55.852;37.644;2022-07-21T14:12:34;98591.13;;;29.26;30.02
39051;BME280;24805;55.852;37.644;2022-07-21T14:17:43;98599.28;;;28.74;30.65
39051;BME280;24805;55.852;37.644;2022-07-21T14:22:45;98606.06;;;28.29;31.55
39051;BME280;24805;55.852;37.644;2022-07-21T14:27:50;98651.41;;;27.27;38.91
39051;BME280;24805;55.852;37.644;2022-07-21T14:32:52;98655.84;;;24.73;47.87
39051;BME280;24805;55.852;37.644;2022-07-21T14:37:54;98674.13;;;23.42;53.99
39051;BME280;24805;55.852;37.644;2022-07-21T14:42:57;98667.94;;;22.92;51.61
39051;BME280;24805;55.852;37.644;2022-07-21T14:47:59;98671.75;;;22.86;53.67
39051;BME280;24805;55.852;37.644;2022-07-21T14:53:01;98666.06;;;22.92;53.70
39051;BME280;24805;55.852;37.644;2022-07-21T14:58:03;98657.03;;;23.07;53.82
39051;BME280;24805;55.852;37.644;2022-07-21T15:03:05;98660.25;;;23.14;52.30
39051;BME280;24805;55.852;37.644;2022-07-21T15:08:08;98658.84;;;23.22;51.21
39051;BME280;24805;55.852;37.644;2022-07-21T15:13:15;98663.94;;;23.28;50.06
39051;BME280;24805;55.852;37.644;2022-07-21T15:18:17;98674.22;;;23.31;50.27
39051;BME280;24805;55.852;37.644;2022-07-21T15:23:20;98673.69;;;23.29;51.23
39051;BME280;24805;55.852;37.644;2022-07-21T15:28:22;98679.66;;;23.26;51.72
39051;BME280;24805;55.852;37.644;2022-07-21T15:33:24;98680.19;;;23.28;50.95
39051;BME280;24805;55.852;37.644;2022-07-21T15:38:27;98680.72;;;23.30;51.13
39051;BME280;24805;55.852;37.644;2022-07-21T15:43:29;98660.97;;;23.30;49.38
39051;BME280;24805;55.852;37.644;2022-07-21T15:48:32;98683.38;;;23.35;49.01
39051;BME280;24805;55.852;37.644;2022-07-21T15:53:34;98684.44;;;23.40;47.41
39051;BME280;24805;55.852;37.644;2022-07-21T15:58:38;98691.63;;;23.59;47.03
39051;BME280;24805;55.852;37.644;2022-07-21T16:04:00;98680.22;;;23.96;45.19
39051;BME280;24805;55.852;37.644;2022-07-21T16:09:03;98677.44;;;24.35;44.08
39051;BME280;24805;55.852;37.644;2022-07-21T16:14:05;98679.88;;;24.37;42.98
39051;BME280;24805;55.852;37.644;2022-07-21T16:19:12;98672.75;;;24.12;42.14
39051;BME280;24805;55.852;37.644;2022-07-21T16:24:15;98709.97;;;24.01;42.00
39051;BME280;24805;55.852;37.644;2022-07-21T16:29:18;98722.84;;;23.86;41.91
39051;BME280;24805;55.852;37.644;2022-07-21T16:34:20;98724.63;;;23.66;41.59
39051;BME280;24805;55.852;37.644;2022-07-21T16:39:22;98800.66;;;23.16;43.85
39051;BME280;24805;55.852;37.644;2022-07-21T16:44:25;98794.81;;;21.72;50.45
39051;BME280;24805;55.852;37.644;2022-07-21T16:49:27;98806.03;;;20.81;54.02
39051;BME280;24805;55.852;37.644;2022-07-21T16:54:29;98797.28;;;20.26;58.26
39051;BME280;24805;55.852;37.644;2022-07-21T16:59:31;98795.50;;;20.05;59.11
39051;BME280;24805;55.852;37.644;2022-07-21T17:04:33;98804.88;;;19.98;59.74
39051;BME280;24805;55.852;37.644;2022-07-21T17:09:38;98817.78;;;19.95;60.79
39051;BME280;24805;55.852;37.644;2022-07-21T17:14:41;98814.53;;;19.93;61.13
39051;BME280;24805;55.852;37.644;2022-07-21T17:19:43;98809.16;;;19.99;60.70
39051;BME280;24805;55.852;37.644;2022-07-21T17:24:45;98813.22;;;20.01;60.43
39051;BME280;24805;55.852;37.644;2022-07-21T17:29:47;98807.56;;;19.98;60.96
39051;BME280;24805;55.852;37.644;2022-07-21T17:34:50;98816.16;;;20.00;61.06
39051;BME280;24805;55.852;37.644;2022-07-21T17:39:52;98817.53;;;19.97;61.08
39051;BME280;24805;55.852;37.644;2022-07-21T17:44:55;98818.84;;;19.94;60.67
39051;BME280;24805;55.852;37.644;2022-07-21T17:49:57;98820.66;;;19.89;60.17
39051;BME280;24805;55.852;37.644;2022-07-21T17:54:59;98811.38;;;19.75;60.27
39051;BME280;24805;55.852;37.644;2022-07-21T18:00:03;98803.00;;;19.49;60.70
39051;BME280;24805;55.852;37.644;2022-07-21T18:05:06;98818.75;;;19.41;60.77
39051;BME280;24805;55.852;37.644;2022-07-21T18:10:09;98820.78;;;19.28;60.81
39051;BME280;24805;55.852;37.644;2022-07-21T18:15:12;98827.13;;;19.17;61.71
39051;BME280;24805;55.852;37.644;2022-07-21T18:20:14;98831.53;;;19.07;61.77
39051;BME280;24805;55.852;37.644;2022-07-21T18:25:16;98844.09;;;19.01;62.07
39051;BME280;24805;55.852;37.644;2022-07-21T18:30:19;98838.03;;;18.89;62.81
39051;BME280;24805;55.852;37.644;2022-07-21T18:35:22;98843.97;;;18.91;62.85
39051;BME280;24805;55.852;37.644;2022-07-21T18:40:24;98848.19;;;18.87;63.12
39051;BME280;24805;55.852;37.644;2022-07-21T18:45:27;98849.41;;;18.79;63.20
39051;BME280;24805;55.852;37.644;2022-07-21T18:50:30;98862.44;;;18.87;62.89
39051;BME280;24805;55.852;37.644;2022-07-21T18:55:32;98870.75;;;18.86;62.91
39051;BME280;24805;55.852;37.644;2022-07-21T19:00:34;98877.28;;;18.90;63.04
39051;BME280;24805;55.852;37.644;2022-07-21T19:05:36;98859.28;;;18.90;63.10
39051;BME280;24805;55.852;37.644;2022-07-21T19:10:39;98875.03;;;19.04;62.84
39051;BME280;24805;55.852;37.644;2022-07-21T19:15:41;98871.78;;;19.02;63.00
39051;BME280;24805;55.852;37.644;2022-07-21T19:20:43;98869.88;;;18.97;63.09
39051;BME280;24805;55.852;37.644;2022-07-21T19:25:46;98861.47;;;18.93;63.85
39051;BME280;24805;55.852;37.644;2022-07-21T19:30:48;98864.09;;;18.88;63.61
39051;BME280;24805;55.852;37.644;2022-07-21T19:35:51;98877.84;;;18.92;63.65
39051;BME280;24805;55.852;37.644;2022-07-21T19:40:53;98883.03;;;18.99;63.51
39051;BME280;24805;55.852;37.644;2022-07-21T19:45:56;98888.41;;;18.99;63.38
39051;BME280;24805;55.852;37.644;2022-07-21T19:50:58;98885.47;;;19.00;62.94
39051;BME280;24805;55.852;37.644;2022-07-21T19:56:02;98886.03;;;19.02;62.78
39051;BME280;24805;55.852;37.644;2022-07-21T20:01:04;98898.91;;;19.00;62.75
39051;BME280;24805;55.852;37.644;2022-07-21T20:06:07;98897.84;;;19.01;62.44
39051;BME280;24805;55.852;37.644;2022-07-21T20:11:09;98906.72;;;19.02;62.15
39051;BME280;24805;55.852;37.644;2022-07-21T20:16:12;98909.81;;;19.10;62.36
39051;BME280;24805;55.852;37.644;2022-07-21T20:21:14;98911.38;;;19.06;61.76
39051;BME280;24805;55.852;37.644;2022-07-21T20:26:16;98927.91;;;19.15;62.30
39051;BME280;24805;55.852;37.644;2022-07-21T20:31:27;98924.31;;;19.09;61.66
39051;BME280;24805;55.852;37.644;2022-07-21T20:36:30;98925.38;;;19.08;61.50
39051;BME280;24805;55.852;37.644;2022-07-21T20:41:32;98932.53;;;19.03;61.73
39051;BME280;24805;55.852;37.644;2022-07-21T20:46:34;98920.16;;;19.02;61.74
39051;BME280;24805;55.852;37.644;2022-07-21T20:51:36;98926.94;;;19.04;61.57
39051;BME280;24805;55.852;37.644;2022-07-21T20:56:39;98927.50;;;19.06;61.26
39051;BME280;24805;55.852;37.644;2022-07-21T21:01:58;98934.25;;;19.09;61.53
39051;BME280;24805;55.852;37.644;2022-07-21T21:07:01;98931.91;;;19.12;61.52
39051;BME280;24805;55.852;37.644;2022-07-21T21:12:03;98934.91;;;19.16;61.69
39051;BME280;24805;55.852;37.644;2022-07-21T21:17:05;98942.31;;;19.09;61.39
39051;BME280;24805;55.852;37.644;2022-07-21T21:22:08;98944.78;;;18.93;61.64
39051;BME280;24805;55.852;37.644;2022-07-21T21:27:11;98939.44;;;18.77;62.03
39051;BME280;24805;55.852;37.644;2022-07-21T21:32:13;98940.69;;;18.57;62.65
39051;BME280;24805;55.852;37.644;2022-07-21T21:37:15;98934.22;;;18.42;63.16
39051;BME280;24805;55.852;37.644;2022-07-21T21:42:18;98936.59;;;18.38;62.80
39051;BME280;24805;55.852;37.644;2022-07-21T21:47:21;98940.59;;;18.36;63.02
39051;BME280;24805;55.852;37.644;2022-07-21T21:52:23;98938.19;;;18.39;62.96
39051;BME280;24805;55.852;37.644;2022-07-21T21:57:25;98932.69;;;18.46;62.50
39051;BME280;24805;55.852;37.644;2022-07-21T22:02:27;98949.47;;;18.53;62.90
39051;BME280;24805;55.852;37.644;2022-07-21T22:07:29;98940.94;;;18.56;62.56
39051;BME280;24805;55.852;37.644;2022-07-21T22:12:31;98937.78;;;18.59;62.22
39051;BME280;24805;55.852;37.644;2022-07-21T22:17:33;98935.91;;;18.59;62.16
39051;BME280;24805;55.852;37.644;2022-07-21T22:22:35;98916.66;;;18.51;62.10
39051;BME280;24805;55.852;37.644;2022-07-21T22:27:50;98926.72;;;18.72;61.60
39051;BME280;24805;55.852;37.644;2022-07-21T22:32:52;98940.22;;;18.61;61.65
39051;BME280;24805;55.852;37.644;2022-07-21T22:37:54;98945.09;;;18.64;61.68
39051;BME280;24805;55.852;37.644;2022-07-21T22:42:56;98943.00;;;18.66;61.35
39051;BME280;24805;55.852;37.644;2022-07-21T22:47:58;98938.69;;;18.65;61.38
39051;BME280;24805;55.852;37.644;2022-07-21T22:53:00;98948.50;;;18.59;61.18
39051;BME280;24805;55.852;37.644;2022-07-21T22:58:03;98929.84;;;18.36;61.46
39051;BME280;24805;55.852;37.644;2022-07-21T23:03:05;98942.59;;;18.29;61.38
39051;BME280;24805;55.852;37.644;2022-07-21T23:08:07;98943.47;;;18.17;62.31
39051;BME280;24805;55.852;37.644;2022-07-21T23:13:09;98941.66;;;18.06;62.17
39051;BME280;24805;55.852;37.644;2022-07-21T23:18:11;98940.72;;;18.01;62.80
39051;BME280;24805;55.852;37.644;2022-07-21T23:23:13;98934.72;;;17.94;63.00
39051;BME280;24805;55.852;37.644;2022-07-21T23:28:16;98942.41;;;17.90;62.53
39051;BME280;24805;55.852;37.644;2022-07-21T23:33:19;98941.59;;;17.89;63.11
39051;BME280;24805;55.852;37.644;2022-07-21T23:38:21;98958.41;;;17.85;63.15
39051;BME280;24805;55.852;37.644;2022-07-21T23:43:23;98963.19;;;17.83;63.47
39051;BME280;24805;55.852;37.644;2022-07-21T23:48:25;98959.22;;;17.85;63.28
39051;BME280;24805;55.852;37.644;2022-07-21T23:53:27;98965.34;;;18.38;60.87
39051;BME280;24805;55.852;37.644;2022-07-21T23:58:29;98954.97;;;18.01;62.53
